Last 6 Hours

Alpine-Scott Top 8120'

15 Minute Data | America/Los_Angeles
as of 1/15/21 12:02 PM PST
Date & Time Temp (°F) RH (%) Dew Pt (°F) Wet Bulb (°F) Wind Dir (°) Wind Spd (mph) Wind Gust (mph) WindChill (°F) Daily Min Temp (°F) Daily Max Temp (°F)
1/15/21 - 1200 51.9 19 10.4 35.7 SSW | 205 14.4 20.3 47.0 48.0 54.0
1/15/21 - 1145 52.0 15 6.4 35.1 SSW | 205 13.1 20.2 47.8 48.0 54.0
1/15/21 - 1130 52.5 14 4.9 35.1 SSW | 200 14.2 21.8 47.7 48.0 54.0
1/15/21 - 1115 53.4 11 -0.5 34.8 SSW | 207 13.3 19.9 48.6 48.0 54.0
1/15/21 - 1100 53.5 12 1.5 35.1 SSW | 205 12.5 19.8 49.4 48.0 54.0
1/15/21 - 1045 53.4 10 -1.0 34.8 SSW | 206 13.2 18.7 49.1 48.0 54.0
1/15/21 - 1030 53.8 10 -1.2 34.9 SSW | 205 12.6 20.5 53.8 48.0 54.0
1/15/21 - 1015 53.3 12 1.4 35.0 SSW | 205 11.9 18.3 53.3 48.0 53.4
1/15/21 - 1000 53.3 13 3.3 35.3 SSW | 204 11.5 16.4 49.7 48.0 53.3
1/15/21 - 0945 52.6 12 1.3 34.6 SSW | 208 11.7 16.7 48.1 48.0 52.9
1/15/21 - 0930 52.3 13 2.6 34.7 SSW | 208 11.1 16.3 48.4 48.0 52.9
1/15/21 - 0915 51.8 14 3.7 34.6 SSW | 207 10.9 17.1 47.7 48.0 52.9
1/15/21 - 0900 52.3 14 4.2 34.9 SW | 222 8.9 12.9 52.3 48.0 52.9
1/15/21 - 0845 52.1 14 5.0 34.9 SW | 215 7.8 14.8 52.1 48.0 52.8
1/15/21 - 0830 50.6 12 -0.4 33.4 WSW | 237 5.3 9.8 47.1 48.0 52.5
1/15/21 - 0815 51.5 10 -2.7 33.6 SW | 225 5.1 7.9 51.5 48.0 52.5
1/15/21 - 0800 51.9 9 -5.5 33.4 SW | 221 4.7 6.8 49.5 48.0 52.5
1/15/21 - 0745 52.2 8 -6.4 33.5 SW | 219 4.5 6.7 52.2 48.0 52.5
1/15/21 - 0730 52.3 9 -5.3 33.7 SW | 233 4.0 6.6 52.3 48.0 52.5
1/15/21 - 0715 52.2 9 -5.0 33.7 WNW | 291 3.4 7.0 52.2 48.0 52.5
1/15/21 - 0700 51.4 11 -2.3 33.6 WNW | 292 2.9 5.4 51.4 48.0 52.3
1/15/21 - 0645 50.8 14 3.5 34.0 W | 273 3.7 5.9 50.8 48.0 52.3
1/15/21 - 0630 51.1 15 5.0 34.4 WSW | 252 4.0 6.3 51.1 48.0 52.3
1/15/21 - 0615 50.8 17 7.0 34.6 SW | 229 4.2 7.8 49.7 48.0 52.3
Max 53.8 19 10.4 35.7 - 14.4 21.8 53.8 48.0 54.0
Avg 52.2 12 1.2 34.5 - 8.7 13.5 50.1 - -
Min 50.6 8 -6.4 33.4 - 2.9 5.4 47.0 48.0 52.3